Time;durP1;ratioP1;P1;durP2;ratioP2;P2;SDS_P1;SDS_P2;PMS_P1;PMS_P2;Temp;Humidity;BMP_temperature;BMP_pressure;BME280_temperature;BME280_humidity;BME280_pressure;Samples;Min_cycle;Max_cycle;Signal;HPM_P1;HPM_P2
2021/03/17 00:00:10;;;;;;;;;;;;;;;;;;4954483;28;20078;-66
2021/03/17 00:02:37;;;;;;;;;;;;;;;;;;4963801;28;19927;-68
2021/03/17 00:05:03;;;;;;;;;;;;;;;;;;4961181;28;19926;-66
2021/03/17 00:07:30;;;;;;;;;;;;;;;;;;4961686;28;19926;-66
2021/03/17 00:09:57;;;;;;;;;;;;;;;;;;4959803;28;19927;-67
2021/03/17 00:12:23;;;;;;;;;;;;;;;;;;4954641;29;19926;-67
2021/03/17 00:14:50;;;;;;;;;;;;;;;;;;4954948;28;20386;-67
2021/03/17 00:17:16;;;;;;;;;;;;;;;;;;4951262;28;20017;-67
2021/03/17 00:19:43;;;;;;;;;;;;;;;;;;4949102;28;20025;-67
2021/03/17 00:22:09;;;;;;;;;;;;;;;;;;4953307;28;19927;-67
2021/03/17 00:24:36;;;;;;;;;;;;;;;;;;4953337;29;19930;-67
2021/03/17 00:27:02;;;;;;;;;;;;;;;;;;4952304;28;20117;-67
2021/03/17 00:29:29;;;;;;;;;;;;;;;;;;4946614;28;20018;-67
2021/03/17 00:31:55;;;;;;;;;;;;;;;;;;4948455;29;20503;-66
2021/03/17 00:34:22;;;;;;;;;;;;;;;;;;4951884;28;19933;-66
2021/03/17 00:36:48;;;;;;;;;;;;;;;;;;4946458;28;19988;-66
2021/03/17 00:39:14;;;;;;;;;;;;;;;;;;4951400;28;19927;-66
2021/03/17 00:41:41;;;;;;;;;;;;;;;;;;4950922;28;19930;-66
2021/03/17 00:44:07;;;;;;;;;;;;;;;;;;4952469;28;20005;-67
2021/03/17 00:46:34;;;;;;;;;;;;;;;;;;4947621;28;19981;-67
2021/03/17 00:49:00;;;;;;;;;;;;;;;;;;4950667;28;19946;-66
2021/03/17 00:51:27;;;;;;;;;;;;;;;;;;4950448;28;20029;-66
2021/03/17 00:53:53;;;;;;;;;;;;;;;;;;4946290;29;19927;-66
2021/03/17 00:56:20;;;;;;;;;;;;;;;;;;4949424;29;20362;-67
2021/03/17 00:58:46;;;;;;;;;;;;;;;;;;4951404;28;20362;-67
2021/03/17 01:01:13;;;;;;;;;;;;;;;;;;4946296;28;20005;-67
2021/03/17 01:03:39;;;;;;;;;;;;;;;;;;4946293;28;19935;-66
2021/03/17 01:06:06;;;;;;;;;;;;;;;;;;4953268;28;20288;-67
2021/03/17 01:08:32;;;;;;;;;;;;;;;;;;4949835;28;19996;-66
2021/03/17 01:10:59;;;;;;;;;;;;;;;;;;4950699;29;19930;-66
2021/03/17 01:13:26;;;;;;;;;;;;;;;;;;4945244;28;19927;-67
2021/03/17 01:15:52;;;;;;;;;;;;;;;;;;4946379;28;19985;-66
2021/03/17 01:18:19;;;;;;;;;;;;;;;;;;4945739;28;19933;-66
2021/03/17 01:20:45;;;;;;;;;;;;;;;;;;4946200;29;19934;-67
2021/03/17 01:23:12;;;;;;;;;;;;;;;;;;4948591;29;19935;-66
2021/03/17 01:25:38;;;;;;;;;;;;;;;;;;4946818;28;19930;-67
2021/03/17 01:28:05;;;;;;;;;;;;;;;;;;4948840;28;19935;-67
2021/03/17 01:30:31;;;;;;;;;;;;;;;;;;4951012;28;20485;-66
2021/03/17 01:32:57;;;;;;;;;;;;;;;;;;4946374;28;19930;-66
2021/03/17 01:35:24;;;;;;;;;;;;;;;;;;4946454;28;19937;-66
2021/03/17 01:37:50;;;;;;;;;;;;;;;;;;4948761;28;20422;-67
2021/03/17 01:40:17;;;;;;;;;;;;;;;;;;4950208;28;19982;-68
2021/03/17 01:42:43;;;;;;;;;;;;;;;;;;4948338;28;19998;-67
2021/03/17 01:45:10;;;;;;;;;;;;;;;;;;4946437;28;20358;-65
2021/03/17 01:47:36;;;;;;;;;;;;;;;;;;4951325;28;20297;-67
2021/03/17 01:50:03;;;;;;;;;;;;;;;;;;4949408;29;19933;-67
2021/03/17 01:52:29;;;;;;;;;;;;;;;;;;4949383;28;19954;-66
2021/03/17 01:54:55;;;;;;;;;;;;;;;;;;4953946;28;19926;-66
2021/03/17 01:57:22;;;;;;;;;;;;;;;;;;4951859;28;20265;-66
2021/03/17 01:59:48;;;;;;;;;;;;;;;;;;4954434;29;19994;-66
2021/03/17 02:02:15;;;;;;;;;;;;;;;;;;4952741;28;19926;-66
2021/03/17 02:04:41;;;;;;;;;;;;;;;;;;4952052;28;19934;-66
2021/03/17 02:07:08;;;;;;;;;;;;;;;;;;4952932;29;19934;-66
2021/03/17 02:09:34;;;;;;;;;;;;;;;;;;4953235;28;19926;-66
2021/03/17 02:12:01;;;;;;;;;;;;;;;;;;4954240;29;19926;-66
2021/03/17 02:14:27;;;;;;;;;;;;;;;;;;4951217;28;20418;-66
2021/03/17 02:16:54;;;;;;;;;;;;;;;;;;4963100;28;20274;-67
2021/03/17 02:19:20;;;;;;;;;;;;;;;;;;4960824;29;19926;-67
2021/03/17 02:21:47;;;;;;;;;;;;;;;;;;4958019;28;19977;-68
2021/03/17 02:24:13;;;;;;;;;;;;;;;;;;4953550;29;19926;-68
2021/03/17 02:26:39;;;;;;;;;;;;;;;;;;4956873;28;19926;-68
2021/03/17 02:29:06;;;;;;;;;;;;;;;;;;4960312;28;20401;-67
2021/03/17 02:31:32;;;;;;;;;;;;;;;;;;4956392;28;20060;-67
2021/03/17 02:33:59;;;;;;;;;;;;;;;;;;4950010;28;20411;-67
2021/03/17 02:36:25;;;;;;;;;;;;;;;;;;4950514;28;20295;-66
2021/03/17 02:38:52;;;;;;;;;;;;;;;;;;4949546;29;19997;-67
2021/03/17 02:41:18;;;;;;;;;;;;;;;;;;4954361;28;20295;-67
2021/03/17 02:43:45;;;;;;;;;;;;;;;;;;4947598;29;20314;-68
2021/03/17 02:46:11;;;;;;;;;;;;;;;;;;4951794;29;19938;-67
2021/03/17 02:48:37;;;;;;;;;;;;;;;;;;4951470;28;19977;-67
2021/03/17 02:51:04;;;;;;;;;;;;;;;;;;4951546;28;19937;-68
2021/03/17 02:53:30;;;;;;;;;;;;;;;;;;4951456;28;19986;-67
2021/03/17 02:55:57;;;;;;;;;;;;;;;;;;4950440;28;19981;-67
2021/03/17 02:58:23;;;;;;;;;;;;;;;;;;4951306;29;19934;-66
2021/03/17 03:00:50;;;;;;;;;;;;;;;;;;4954063;28;19926;-66
2021/03/17 03:03:16;;;;;;;;;;;;;;;;;;4958561;28;20411;-66
2021/03/17 03:05:43;;;;;;;;;;;;;;;;;;4953107;28;20339;-68
2021/03/17 03:08:09;;;;;;;;;;;;;;;;;;4951926;28;19927;-67
2021/03/17 03:10:35;;;;;;;;;;;;;;;;;;4952438;28;19997;-67
2021/03/17 03:13:02;;;;;;;;;;;;;;;;;;4954101;28;19926;-67
2021/03/17 03:15:28;;;;;;;;;;;;;;;;;;4946588;28;19935;-67
2021/03/17 03:17:55;;;;;;;;;;;;;;;;;;4948109;28;19933;-67
2021/03/17 03:20:21;;;;;;;;;;;;;;;;;;4949619;28;19933;-67
2021/03/17 03:22:48;;;;;;;;;;;;;;;;;;4948774;28;19930;-67
2021/03/17 03:25:14;;;;;;;;;;;;;;;;;;4950478;28;19927;-67
2021/03/17 03:27:41;;;;;;;;;;;;;;;;;;4948134;29;19926;-66
2021/03/17 03:30:07;;;;;;;;;;;;;;;;;;4951311;28;19926;-67
2021/03/17 03:32:34;;;;;;;;;;;;;;;;;;4942750;28;19981;-66
2021/03/17 03:35:00;;;;;;;;;;;;;;;;;;4948813;28;19926;-67
2021/03/17 03:37:27;;;;;;;;;;;;;;;;;;4948730;28;19937;-66
2021/03/17 03:39:53;;;;;;;;;;;;;;;;;;4951854;29;20464;-67
2021/03/17 03:42:19;;;;;;;;;;;;;;;;;;4948484;28;20417;-67
2021/03/17 03:44:46;;;;;;;;;;;;;;;;;;4948164;28;20413;-67
2021/03/17 03:47:12;;;;;;;;;;;;;;;;;;4945643;28;20330;-67
2021/03/17 03:49:39;;;;;;;;;;;;;;;;;;4962730;23;19953;-67
2021/03/17 03:52:05;;;;;;;;;;;;;;;;;;4949444;29;19976;-67
2021/03/17 03:54:32;;;;;;;;;;;;;;;;;;4940259;28;19933;-66
2021/03/17 03:56:58;;;;;;;;;;;;;;;;;;4949352;29;20318;-66
2021/03/17 03:59:25;;;;;;;;;;;;;;;;;;4945410;28;19927;-67
2021/03/17 04:01:51;;;;;;;;;;;;;;;;;;4928359;29;19981;-66
2021/03/17 04:04:18;;;;;;;;;;;;;;;;;;4934137;29;20318;-66
2021/03/17 04:06:44;;;;;;;;;;;;;;;;;;4932584;29;19926;-66
2021/03/17 04:09:10;;;;;;;;;;;;;;;;;;4928788;29;19937;-67
2021/03/17 04:11:37;;;;;;;;;;;;;;;;;;4929945;29;19938;-67
2021/03/17 04:14:03;;;;;;;;;;;;;;;;;;4932154;29;19931;-67
2021/03/17 04:16:30;;;;;;;;;;;;;;;;;;4930406;29;19927;-67
2021/03/17 04:18:56;;;;;;;;;;;;;;;;;;4933026;29;19927;-68
2021/03/17 04:21:23;;;;;;;;;;;;;;;;;;4929097;29;19934;-66
2021/03/17 04:23:49;;;;;;;;;;;;;;;;;;4929724;29;19927;-68
2021/03/17 04:26:16;;;;;;;;;;;;;;;;;;4931589;29;19931;-67
2021/03/17 04:28:42;;;;;;;;;;;;;;;;;;4932317;29;19934;-67
2021/03/17 04:31:09;;;;;;;;;;;;;;;;;;4934392;29;19933;-67
2021/03/17 04:33:35;;;;;;;;;;;;;;;;;;4929792;29;20288;-67
2021/03/17 04:36:02;;;;;;;;;;;;;;;;;;4929491;29;19931;-66
2021/03/17 04:38:28;;;;;;;;;;;;;;;;;;4925342;29;19933;-66
2021/03/17 04:40:55;;;;;;;;;;;;;;;;;;4926773;29;19927;-67
2021/03/17 04:43:21;;;;;;;;;;;;;;;;;;4929663;29;19930;-66
2021/03/17 04:45:48;;;;;;;;;;;;;;;;;;4931918;29;19927;-66
2021/03/17 04:48:14;;;;;;;;;;;;;;;;;;4933869;29;19935;-67
2021/03/17 04:50:40;;;;;;;;;;;;;;;;;;4925477;29;20299;-66
2021/03/17 04:53:07;;;;;;;;;;;;;;;;;;4928410;29;19927;-67
2021/03/17 04:55:33;;;;;;;;;;;;;;;;;;4932691;29;19931;-67
2021/03/17 04:58:00;;;;;;;;;;;;;;;;;;4929086;29;19927;-68
2021/03/17 05:00:26;;;;;;;;;;;;;;;;;;4924443;29;19946;-68
2021/03/17 05:02:53;;;;;;;;;;;;;;;;;;4930313;29;20427;-69
2021/03/17 05:05:20;;;;;;;;;;;;;;;;;;4931279;29;19934;-67
2021/03/17 05:07:46;;;;;;;;;;;;;;;;;;4929023;29;19934;-67
2021/03/17 05:10:12;;;;;;;;;;;;;;;;;;4925223;29;19928;-69
2021/03/17 05:12:39;;;;;;;;;;;;;;;;;;4929747;29;19927;-67
2021/03/17 05:15:05;;;;;;;;;;;;;;;;;;4929641;29;19933;-67
2021/03/17 05:17:32;;;;;;;;;;;;;;;;;;4932524;29;19982;-67
2021/03/17 05:19:58;;;;;;;;;;;;;;;;;;4932187;29;19934;-67
2021/03/17 05:22:25;;;;;;;;;;;;;;;;;;4928965;29;19931;-67
2021/03/17 05:24:52;;;;;;;;;;;;;;;;;;4928784;29;19950;-68
2021/03/17 05:27:18;;;;;;;;;;;;;;;;;;4932504;29;19982;-69
2021/03/17 05:29:44;;;;;;;;;;;;;;;;;;4931512;29;19942;-68
2021/03/17 05:32:11;;;;;;;;;;;;;;;;;;4936355;29;19981;-68
2021/03/17 05:34:38;;;;;;;;;;;;;;;;;;4933768;29;19927;-68
2021/03/17 05:37:05;;;;;;;;;;;;;;;;;;4933696;29;19927;-68
2021/03/17 05:39:31;;;;;;;;;;;;;;;;;;4935765;29;20022;-67
2021/03/17 05:41:58;;;;;;;;;;;;;;;;;;4938128;29;20009;-67
2021/03/17 05:44:24;;;;;;;;;;;;;;;;;;4936797;29;20327;-67
2021/03/17 05:46:51;;;;;;;;;;;;;;;;;;4934694;29;19930;-67
2021/03/17 05:49:17;;;;;;;;;;;;;;;;;;4934202;29;19927;-67
2021/03/17 05:51:44;;;;;;;;;;;;;;;;;;4935049;29;19930;-67
2021/03/17 05:54:10;;;;;;;;;;;;;;;;;;4930313;29;19927;-67
2021/03/17 05:56:37;;;;;;;;;;;;;;;;;;4934099;29;19934;-68
2021/03/17 05:59:03;;;;;;;;;;;;;;;;;;4931025;29;19937;-69
2021/03/17 06:01:30;;;;;;;;;;;;;;;;;;4935523;29;19926;-69
2021/03/17 06:03:56;;;;;;;;;;;;;;;;;;4934675;29;20351;-68
2021/03/17 06:06:23;;;;;;;;;;;;;;;;;;4937166;29;19927;-67
2021/03/17 06:08:49;;;;;;;;;;;;;;;;;;4935864;29;20633;-68
2021/03/17 06:11:16;;;;;;;;;;;;;;;;;;4936030;29;19954;-67
2021/03/17 06:13:42;;;;;;;;;;;;;;;;;;4928263;29;19934;-68
2021/03/17 06:16:09;;;;;;;;;;;;;;;;;;4935643;29;20025;-67
2021/03/17 06:18:35;;;;;;;;;;;;;;;;;;4935401;29;19927;-68
2021/03/17 06:21:02;;;;;;;;;;;;;;;;;;4922680;29;19927;-69
2021/03/17 06:23:28;;;;;;;;;;;;;;;;;;4931666;29;20380;-67
2021/03/17 06:25:54;;;;;;;;;;;;;;;;;;4932548;29;20287;-67
2021/03/17 06:28:21;;;;;;;;;;;;;;;;;;4935383;29;20376;-67
2021/03/17 06:30:47;;;;;;;;;;;;;;;;;;4933095;29;19935;-68
2021/03/17 06:33:14;;;;;;;;;;;;;;;;;;4928856;29;19958;-68
2021/03/17 06:35:40;;;;;;;;;;;;;;;;;;4926019;29;19927;-68
2021/03/17 06:38:07;;;;;;;;;;;;;;;;;;4935051;29;19927;-67
2021/03/17 06:40:33;;;;;;;;;;;;;;;;;;4934800;29;19931;-68
2021/03/17 06:43:00;;;;;;;;;;;;;;;;;;4932543;29;19930;-68
2021/03/17 06:45:26;;;;;;;;;;;;;;;;;;4933165;29;20339;-67
2021/03/17 06:47:53;;;;;;;;;;;;;;;;;;4927990;29;20029;-67
2021/03/17 06:50:19;;;;;;;;;;;;;;;;;;4935036;29;20458;-67
2021/03/17 06:52:46;;;;;;;;;;;;;;;;;;4928188;29;19927;-67
2021/03/17 06:55:12;;;;;;;;;;;;;;;;;;4936170;29;20375;-68
2021/03/17 06:57:38;;;;;;;;;;;;;;;;;;4931785;29;19931;-68
2021/03/17 07:00:05;;;;;;;;;;;;;;;;;;4922891;29;19982;-67
2021/03/17 07:02:31;;;;;;;;;;;;;;;;;;4926280;29;19927;-67
2021/03/17 07:04:58;;;;;;;;;;;;;;;;;;4931621;29;19978;-66
2021/03/17 07:07:24;;;;;;;;;;;;;;;;;;4928579;29;20426;-66
2021/03/17 07:09:51;;;;;;;;;;;;;;;;;;4933468;29;19926;-67
2021/03/17 07:12:17;;;;;;;;;;;;;;;;;;4933189;29;19937;-66
2021/03/17 07:14:44;;;;;;;;;;;;;;;;;;4923673;29;20021;-66
2021/03/17 07:17:10;;;;;;;;;;;;;;;;;;4934856;29;19955;-68
2021/03/17 07:19:37;;;;;;;;;;;;;;;;;;4928626;29;19990;-67
2021/03/17 07:22:03;;;;;;;;;;;;;;;;;;4922306;29;19946;-67
2021/03/17 07:24:30;;;;;;;;;;;;;;;;;;4925188;29;19959;-66
2021/03/17 07:26:56;;;;;;;;;;;;;;;;;;4923817;29;20489;-67
2021/03/17 07:29:24;;;;;;;;;;;;;;;;;;4934080;29;19969;-66
2021/03/17 07:31:51;;;;;;;;;;;;;;;;;;4935641;29;20006;-67
2021/03/17 07:34:17;;;;;;;;;;;;;;;;;;4929781;29;20004;-67
2021/03/17 07:36:45;;;;;;;;;;;;;;;;;;4928792;29;19933;-68
2021/03/17 07:39:12;;;;;;;;;;;;;;;;;;4929409;29;20294;-68
2021/03/17 07:41:38;;;;;;;;;;;;;;;;;;4933168;29;19933;-66
2021/03/17 07:44:04;;;;;;;;;;;;;;;;;;4929206;29;19973;-67
2021/03/17 07:46:31;;;;;;;;;;;;;;;;;;4925589;29;20292;-67
2021/03/17 07:48:57;;;;;;;;;;;;;;;;;;4923778;29;20384;-67
2021/03/17 07:51:24;;;;;;;;;;;;;;;;;;4933721;28;19927;-68
2021/03/17 07:53:51;;;;;;;;;;;;;;;;;;4928250;29;19948;-68
2021/03/17 07:56:18;;;;;;;;;;;;;;;;;;4937031;29;19982;-67
2021/03/17 07:58:44;;;;;;;;;;;;;;;;;;4931860;29;19981;-67
2021/03/17 08:01:11;;;;;;;;;;;;;;;;;;4936415;29;19930;-68
2021/03/17 08:03:37;;;;;;;;;;;;;;;;;;4933717;29;19950;-66
2021/03/17 08:06:03;;;;;;;;;;;;;;;;;;4929823;29;19935;-67
2021/03/17 08:08:30;;;;;;;;;;;;;;;;;;4929660;29;19927;-67
2021/03/17 08:10:56;;;;;;;;;;;;;;;;;;4931063;29;20002;-67
2021/03/17 08:13:23;;;;;;;;;;;;;;;;;;4932045;29;20018;-68
2021/03/17 08:15:49;;;;;;;;;;;;;;;;;;4933627;29;19931;-68
2021/03/17 08:18:16;;;;;;;;;;;;;;;;;;4927610;29;20296;-67
2021/03/17 08:20:42;;;;;;;;;;;;;;;;;;4929377;29;19926;-67
2021/03/17 08:23:09;;;;;;;;;;;;;;;;;;4930942;29;20079;-67
2021/03/17 08:25:35;;;;;;;;;;;;;;;;;;4929871;29;19935;-68
2021/03/17 08:28:02;;;;;;;;;;;;;;;;;;4932956;29;19927;-67
2021/03/17 08:30:28;;;;;;;;;;;;;;;;;;4931320;29;19930;-67
2021/03/17 08:32:55;;;;;;;;;;;;;;;;;;4936939;29;19935;-67
2021/03/17 08:35:21;;;;;;;;;;;;;;;;;;4930800;29;20043;-67
2021/03/17 08:37:48;;;;;;;;;;;;;;;;;;4922260;29;19927;-69
2021/03/17 08:40:14;;;;;;;;;;;;;;;;;;4927684;29;19931;-68
2021/03/17 08:42:41;;;;;;;;;;;;;;;;;;4928010;29;19927;-68
2021/03/17 08:45:08;;;;;;;;;;;;;;;;;;4926728;29;20018;-68
2021/03/17 08:47:34;;;;;;;;;;;;;;;;;;4929611;29;19927;-68
2021/03/17 08:50:01;;;;;;;;;;;;;;;;;;4928296;29;20351;-67
2021/03/17 08:52:27;;;;;;;;;;;;;;;;;;4931312;29;19930;-68
2021/03/17 08:54:53;;;;;;;;;;;;;;;;;;4927968;29;19926;-68
2021/03/17 08:57:19;;;;;;;;;;;;;;;;;;4927822;29;19938;-68
2021/03/17 08:59:46;;;;;;;;;;;;;;;;;;4926802;29;19935;-68
2021/03/17 09:02:12;;;;;;;;;;;;;;;;;;4926636;29;19941;-68
2021/03/17 09:04:39;;;;;;;;;;;;;;;;;;4941494;29;19927;-68
2021/03/17 09:07:05;;;;;;;;;;;;;;;;;;4938512;29;19927;-68
2021/03/17 09:09:32;;;;;;;;;;;;;;;;;;4927495;29;19934;-68
2021/03/17 09:11:59;;;;;;;;;;;;;;;;;;4941769;29;19927;-68
2021/03/17 09:14:26;;;;;;;;;;;;;;;;;;4935801;29;20442;-68
2021/03/17 09:16:53;;;;;;;;;;;;;;;;;;4929270;29;19949;-69
2021/03/17 09:19:19;;;;;;;;;;;;;;;;;;4932803;29;19927;-67
2021/03/17 09:21:46;;;;;;;;;;;;;;;;;;4933500;29;19934;-67
2021/03/17 09:24:12;;;;;;;;;;;;;;;;;;4929420;29;19930;-67
2021/03/17 09:26:39;;;;;;;;;;;;;;;;;;4932042;29;20274;-67
2021/03/17 09:29:05;;;;;;;;;;;;;;;;;;4930303;29;19927;-69
2021/03/17 09:31:34;;;;;;;;;;;;;;;;;;4937039;29;19927;-67
2021/03/17 09:34:01;;;;;;;;;;;;;;;;;;4921333;29;20006;-66
2021/03/17 09:36:27;;;;;;;;;;;;;;;;;;4926228;29;19935;-66
2021/03/17 09:38:54;;;;;;;;;;;;;;;;;;4933371;29;20284;-68
2021/03/17 09:41:20;;;;;;;;;;;;;;;;;;4927516;29;20391;-67
2021/03/17 09:43:47;;;;;;;;;;;;;;;;;;4927401;29;19927;-67
2021/03/17 09:46:13;;;;;;;;;;;;;;;;;;4937833;29;19935;-67
2021/03/17 09:48:40;;;;;;;;;;;;;;;;;;4934330;29;20039;-68
2021/03/17 09:51:07;;;;;;;;;;;;;;;;;;4934667;29;19926;-68
2021/03/17 09:53:34;;;;;;;;;;;;;;;;;;4931047;29;20307;-67
2021/03/17 09:56:00;;;;;;;;;;;;;;;;;;4932006;29;19974;-68
2021/03/17 09:58:27;;;;;;;;;;;;;;;;;;4931921;29;19927;-68
2021/03/17 10:00:56;;;;;;;;;;;;;;;;;;4931789;29;19934;-68
2021/03/17 10:03:22;;;;;;;;;;;;;;;;;;4936162;29;20029;-68
2021/03/17 10:05:49;;;;;;;;;;;;;;;;;;4923858;29;19926;-68
2021/03/17 10:08:15;;;;;;;;;;;;;;;;;;4924410;29;19931;-68
2021/03/17 10:10:42;;;;;;;;;;;;;;;;;;4929180;29;19973;-68
2021/03/17 10:13:08;;;;;;;;;;;;;;;;;;4932314;29;20222;-66
2021/03/17 10:15:35;;;;;;;;;;;;;;;;;;4927688;29;19974;-67
2021/03/17 10:18:01;;;;;;;;;;;;;;;;;;4931211;29;19933;-66
2021/03/17 10:20:27;;;;;;;;;;;;;;;;;;4929756;29;19959;-68
2021/03/17 10:22:54;;;;;;;;;;;;;;;;;;4932432;29;19935;-67
2021/03/17 10:25:21;;;;;;;;;;;;;;;;;;4935766;29;19941;-67
2021/03/17 10:27:47;;;;;;;;;;;;;;;;;;4932184;29;19926;-67
2021/03/17 10:30:14;;;;;;;;;;;;;;;;;;4933105;29;20311;-67
2021/03/17 10:32:40;;;;;;;;;;;;;;;;;;4929632;29;19930;-66
2021/03/17 10:35:07;;;;;;;;;;;;;;;;;;4931301;29;20374;-66
2021/03/17 10:37:33;;;;;;;;;;;;;;;;;;4934626;29;19927;-69
2021/03/17 10:40:00;;;;;;;;;;;;;;;;;;4929898;29;20037;-68
2021/03/17 10:42:26;;;;;;;;;;;;;;;;;;4939289;29;19927;-69
2021/03/17 10:44:52;;;;;;;;;;;;;;;;;;4930880;29;20013;-69
2021/03/17 10:47:19;;;;;;;;;;;;;;;;;;4929634;29;19931;-69
2021/03/17 10:49:45;;;;;;;;;;;;;;;;;;4930228;29;20314;-66
2021/03/17 10:52:12;;;;;;;;;;;;;;;;;;4933018;29;19933;-66
2021/03/17 10:54:38;;;;;;;;;;;;;;;;;;4927260;29;20348;-67
2021/03/17 10:57:05;;;;;;;;;;;;;;;;;;4934328;29;19927;-67
2021/03/17 10:59:31;;;;;;;;;;;;;;;;;;4933944;29;20392;-67
2021/03/17 11:01:58;;;;;;;;;;;;;;;;;;4928902;29;19927;-67
2021/03/17 11:04:24;;;;;;;;;;;;;;;;;;4929239;29;20655;-67
2021/03/17 11:06:51;;;;;;;;;;;;;;;;;;4928121;29;19928;-68
2021/03/17 11:09:17;;;;;;;;;;;;;;;;;;4927775;29;19987;-67
2021/03/17 11:11:44;;;;;;;;;;;;;;;;;;4929084;29;19927;-68
2021/03/17 11:14:10;;;;;;;;;;;;;;;;;;4931597;29;19939;-67
2021/03/17 11:16:37;;;;;;;;;;;;;;;;;;4932132;29;19927;-67
2021/03/17 11:19:03;;;;;;;;;;;;;;;;;;4930482;29;19928;-67
2021/03/17 11:21:30;;;;;;;;;;;;;;;;;;4929683;29;19941;-67
2021/03/17 11:23:56;;;;;;;;;;;;;;;;;;4931928;29;19978;-67
2021/03/17 11:26:23;;;;;;;;;;;;;;;;;;4925154;29;19941;-67
2021/03/17 11:28:49;;;;;;;;;;;;;;;;;;4924905;29;19927;-67
2021/03/17 11:31:16;;;;;;;;;;;;;;;;;;4925070;29;19934;-67
2021/03/17 11:33:42;;;;;;;;;;;;;;;;;;4930850;29;19935;-67
2021/03/17 11:36:09;;;;;;;;;;;;;;;;;;4927681;29;19926;-67
2021/03/17 11:38:35;;;;;;;;;;;;;;;;;;4930959;29;19981;-67
2021/03/17 11:41:01;;;;;;;;;;;;;;;;;;4930059;29;20351;-67
2021/03/17 11:43:28;;;;;;;;;;;;;;;;;;4923181;29;20257;-67
2021/03/17 11:45:54;;;;;;;;;;;;;;;;;;4927673;29;19934;-67
2021/03/17 11:48:21;;;;;;;;;;;;;;;;;;4926093;29;19933;-66
2021/03/17 11:50:47;;;;;;;;;;;;;;;;;;4930694;29;19933;-65
2021/03/17 11:53:14;;;;;;;;;;;;;;;;;;4929460;29;20342;-65
2021/03/17 11:55:40;;;;;;;;;;;;;;;;;;4931744;29;19973;-66
2021/03/17 11:58:07;;;;;;;;;;;;;;;;;;4925633;29;20347;-66
2021/03/17 12:00:33;;;;;;;;;;;;;;;;;;4926567;29;19935;-65
2021/03/17 12:03:00;;;;;;;;;;;;;;;;;;4926437;29;19930;-66
2021/03/17 12:05:26;;;;;;;;;;;;;;;;;;4928510;29;20025;-67
2021/03/17 12:07:53;;;;;;;;;;;;;;;;;;4927256;29;19931;-66
2021/03/17 12:10:19;;;;;;;;;;;;;;;;;;4928017;29;20356;-66
2021/03/17 12:12:46;;;;;;;;;;;;;;;;;;4926035;29;19927;-66
2021/03/17 12:15:12;;;;;;;;;;;;;;;;;;4925841;29;20324;-64
2021/03/17 12:17:39;;;;;;;;;;;;;;;;;;4930221;29;19927;-63
2021/03/17 12:20:05;;;;;;;;;;;;;;;;;;4929346;29;20396;-67
2021/03/17 12:22:32;;;;;;;;;;;;;;;;;;4928016;29;20017;-66
2021/03/17 12:24:58;;;;;;;;;;;;;;;;;;4926661;29;19927;-64
2021/03/17 12:27:25;;;;;;;;;;;;;;;;;;4926062;29;19931;-64
2021/03/17 12:29:51;;;;;;;;;;;;;;;;;;4925930;29;20467;-64
2021/03/17 12:32:18;;;;;;;;;;;;;;;;;;4928585;29;19962;-66
2021/03/17 12:34:44;;;;;;;;;;;;;;;;;;4929564;29;20475;-65
2021/03/17 12:37:10;;;;;;;;;;;;;;;;;;4928946;29;19972;-64
2021/03/17 12:39:37;;;;;;;;;;;;;;;;;;4928556;29;19933;-65
2021/03/17 12:42:03;;;;;;;;;;;;;;;;;;4927781;29;20003;-66
2021/03/17 12:44:30;;;;;;;;;;;;;;;;;;4925936;29;20482;-64
2021/03/17 12:46:58;;;;;;;;;;;;;;;;;;4925718;29;19974;-63
2021/03/17 12:49:25;;;;;;;;;;;;;;;;;;4928710;29;20013;-67
2021/03/17 12:51:51;;;;;;;;;;;;;;;;;;4928641;29;19934;-67
2021/03/17 12:54:18;;;;;;;;;;;;;;;;;;4929224;29;19926;-66
2021/03/17 12:56:44;;;;;;;;;;;;;;;;;;4926458;29;19982;-68
2021/03/17 12:59:10;;;;;;;;;;;;;;;;;;4924779;29;20380;-66
2021/03/17 13:01:37;;;;;;;;;;;;;;;;;;4927045;29;19927;-67
2021/03/17 13:04:03;;;;;;;;;;;;;;;;;;4928208;29;19931;-67
2021/03/17 13:06:30;;;;;;;;;;;;;;;;;;4926908;29;19926;-65
2021/03/17 13:09:02;;;;;;;;;;;;;;;;;;4927420;29;20385;-66
2021/03/17 13:11:29;;;;;;;;;;;;;;;;;;4929120;29;19949;-67
2021/03/17 13:13:55;;;;;;;;;;;;;;;;;;4925586;29;19933;-66
2021/03/17 13:16:21;;;;;;;;;;;;;;;;;;4925010;29;19927;-67
2021/03/17 13:18:48;;;;;;;;;;;;;;;;;;4927213;29;19942;-67
2021/03/17 13:21:14;;;;;;;;;;;;;;;;;;4925340;29;19934;-66
2021/03/17 13:23:41;;;;;;;;;;;;;;;;;;4925550;29;19934;-66
2021/03/17 13:26:07;;;;;;;;;;;;;;;;;;4933565;29;20311;-65
2021/03/17 13:28:34;;;;;;;;;;;;;;;;;;4925218;29;20410;-65
2021/03/17 13:31:00;;;;;;;;;;;;;;;;;;4927225;29;19958;-65
2021/03/17 13:33:27;;;;;;;;;;;;;;;;;;4930278;29;19927;-68
2021/03/17 13:35:53;;;;;;;;;;;;;;;;;;4924686;29;19933;-64
2021/03/17 13:38:20;;;;;;;;;;;;;;;;;;4925140;29;19927;-65
2021/03/17 13:40:46;;;;;;;;;;;;;;;;;;4929874;29;19931;-66
2021/03/17 13:43:13;;;;;;;;;;;;;;;;;;4927431;29;20407;-67
2021/03/17 13:45:40;;;;;;;;;;;;;;;;;;4926474;29;19926;-65
2021/03/17 13:48:07;;;;;;;;;;;;;;;;;;4926939;29;19962;-66
2021/03/17 13:50:33;;;;;;;;;;;;;;;;;;4932051;29;20081;-67
2021/03/17 13:53:00;;;;;;;;;;;;;;;;;;4927503;29;19927;-64
2021/03/17 13:55:26;;;;;;;;;;;;;;;;;;4930895;29;20475;-65
2021/03/17 13:57:53;;;;;;;;;;;;;;;;;;4931512;29;19962;-66
2021/03/17 14:00:19;;;;;;;;;;;;;;;;;;4931362;29;19953;-65
2021/03/17 14:02:46;;;;;;;;;;;;;;;;;;4931203;29;19932;-66
2021/03/17 14:05:12;;;;;;;;;;;;;;;;;;4928774;29;19953;-67
2021/03/17 14:07:39;;;;;;;;;;;;;;;;;;4926208;29;19938;-66
2021/03/17 14:10:05;;;;;;;;;;;;;;;;;;4928061;29;19999;-66
2021/03/17 14:12:32;;;;;;;;;;;;;;;;;;4927794;29;20142;-66
2021/03/17 14:14:58;;;;;;;;;;;;;;;;;;4934381;29;19933;-66
2021/03/17 14:17:25;;;;;;;;;;;;;;;;;;4927510;29;19935;-67
2021/03/17 14:19:51;;;;;;;;;;;;;;;;;;4929752;29;19927;-66
2021/03/17 14:22:18;;;;;;;;;;;;;;;;;;4933236;29;20465;-66
2021/03/17 14:24:44;;;;;;;;;;;;;;;;;;4929559;29;19986;-67
2021/03/17 14:27:11;;;;;;;;;;;;;;;;;;4929305;29;20412;-67
2021/03/17 14:29:37;;;;;;;;;;;;;;;;;;4928271;29;19934;-67
2021/03/17 14:32:04;;;;;;;;;;;;;;;;;;4927358;29;20525;-65
2021/03/17 14:34:30;;;;;;;;;;;;;;;;;;4926371;29;19927;-66
2021/03/17 14:36:57;;;;;;;;;;;;;;;;;;4926913;29;19933;-64
2021/03/17 14:39:23;;;;;;;;;;;;;;;;;;4928429;29;19927;-65
2021/03/17 14:41:50;;;;;;;;;;;;;;;;;;4926723;29;19937;-66
2021/03/17 14:44:16;;;;;;;;;;;;;;;;;;4926197;29;19935;-66
2021/03/17 14:46:43;;;;;;;;;;;;;;;;;;4932878;29;19935;-66
2021/03/17 14:49:09;;;;;;;;;;;;;;;;;;4928673;29;20029;-66
2021/03/17 14:51:36;;;;;;;;;;;;;;;;;;4929469;29;20315;-66
2021/03/17 14:54:02;;;;;;;;;;;;;;;;;;4927344;29;19931;-67
2021/03/17 14:56:28;;;;;;;;;;;;;;;;;;4927497;29;20484;-66
2021/03/17 14:58:55;;;;;;;;;;;;;;;;;;4928186;29;19966;-66
2021/03/17 15:01:22;;;;;;;;;;;;;;;;;;4930813;29;20318;-66
2021/03/17 15:03:49;;;;;;;;;;;;;;;;;;4925034;29;19927;-66
2021/03/17 15:06:15;;;;;;;;;;;;;;;;;;4926917;29;19927;-66
2021/03/17 15:08:42;;;;;;;;;;;;;;;;;;4928543;29;19927;-66
2021/03/17 15:11:08;;;;;;;;;;;;;;;;;;4930715;29;19926;-66
2021/03/17 15:13:35;;;;;;;;;;;;;;;;;;4928457;29;20025;-65
2021/03/17 15:16:01;;;;;;;;;;;;;;;;;;4928163;29;20430;-63
2021/03/17 15:18:28;;;;;;;;;;;;;;;;;;4925945;29;19934;-63
2021/03/17 15:20:54;;;;;;;;;;;;;;;;;;4929723;29;19927;-64
2021/03/17 15:23:21;;;;;;;;;;;;;;;;;;4931747;29;19927;-64
2021/03/17 15:25:47;;;;;;;;;;;;;;;;;;4932438;29;20034;-66
2021/03/17 15:28:14;;;;;;;;;;;;;;;;;;4930623;29;20398;-66
2021/03/17 15:30:40;;;;;;;;;;;;;;;;;;4933895;29;19982;-65
2021/03/17 15:33:07;;;;;;;;;;;;;;;;;;4930558;29;20426;-65
2021/03/17 15:35:33;;;;;;;;;;;;;;;;;;4929002;29;19985;-65
2021/03/17 15:38:00;;;;;;;;;;;;;;;;;;4931876;29;19933;-65
2021/03/17 15:40:26;;;;;;;;;;;;;;;;;;4932108;29;19927;-65
2021/03/17 15:42:53;;;;;;;;;;;;;;;;;;4931656;29;19927;-65
2021/03/17 15:45:19;;;;;;;;;;;;;;;;;;4931808;29;20434;-65
2021/03/17 15:47:46;;;;;;;;;;;;;;;;;;4930206;29;19937;-65
2021/03/17 15:50:12;;;;;;;;;;;;;;;;;;4960797;23;19932;-66
2021/03/17 15:52:39;;;;;;;;;;;;;;;;;;4964473;28;20309;-66
2021/03/17 15:55:05;;;;;;;;;;;;;;;;;;4965055;28;19938;-66
2021/03/17 15:57:32;;;;;;;;;;;;;;;;;;4965533;28;19926;-66
2021/03/17 15:59:58;;;;;;;;;;;;;;;;;;4956274;28;19932;-66
2021/03/17 16:02:25;;;;;;;;;;;;;;;;;;4950564;28;19941;-65
2021/03/17 16:04:51;;;;;;;;;;;;;;;;;;4949160;28;19950;-66
2021/03/17 16:07:18;;;;;;;;;;;;;;;;;;4944276;28;19926;-66
2021/03/17 16:09:44;;;;;;;;;;;;;;;;;;4949417;28;20355;-66
2021/03/17 16:12:12;;;;;;;;;;;;;;;;;;4949927;28;20417;-66
2021/03/17 16:14:38;;;;;;;;;;;;;;;;;;4947274;28;20189;-65
2021/03/17 16:17:04;;;;;;;;;;;;;;;;;;4947530;29;20029;-65
2021/03/17 16:19:31;;;;;;;;;;;;;;;;;;4946980;29;19972;-66
2021/03/17 16:21:58;;;;;;;;;;;;;;;;;;4949305;29;19938;-65
2021/03/17 16:24:24;;;;;;;;;;;;;;;;;;4949483;28;20285;-65
2021/03/17 16:26:51;;;;;;;;;;;;;;;;;;4949244;28;19926;-65
2021/03/17 16:29:17;;;;;;;;;;;;;;;;;;4946676;28;19926;-64
2021/03/17 16:31:44;;;;;;;;;;;;;;;;;;4948422;29;19931;-65
2021/03/17 16:34:10;;;;;;;;;;;;;;;;;;4951638;28;19958;-65
2021/03/17 16:36:37;;;;;;;;;;;;;;;;;;4956875;28;19954;-65
2021/03/17 16:39:03;;;;;;;;;;;;;;;;;;4953580;28;19936;-65